sensor_id;sensor_type;location;lat;lon;timestamp;P1;durP1;ratioP1;P2;durP2;ratioP2
26102;SDS011;69760;49.380;8.998;2023-11-21T00:00:12;3.88;;;1.85;;
26102;SDS011;69760;49.380;8.998;2023-11-21T00:02:39;3.40;;;1.50;;
26102;SDS011;69760;49.380;8.998;2023-11-21T00:05:08;7.05;;;2.65;;
26102;SDS011;69760;49.380;8.998;2023-11-21T00:07:36;5.95;;;2.00;;
26102;SDS011;69760;49.380;8.998;2023-11-21T00:10:02;7.57;;;2.15;;
26102;SDS011;69760;49.380;8.998;2023-11-21T00:12:30;5.85;;;1.80;;
26102;SDS011;69760;49.380;8.998;2023-11-21T00:14:56;6.70;;;2.33;;
26102;SDS011;69760;49.380;8.998;2023-11-21T00:17:22;4.90;;;1.90;;
26102;SDS011;69760;49.380;8.998;2023-11-21T00:19:48;6.90;;;1.67;;
26102;SDS011;69760;49.380;8.998;2023-11-21T00:22:14;4.75;;;1.90;;
26102;SDS011;69760;49.380;8.998;2023-11-21T00:24:40;4.82;;;1.88;;
26102;SDS011;69760;49.380;8.998;2023-11-21T00:27:06;6.07;;;2.13;;
26102;SDS011;69760;49.380;8.998;2023-11-21T00:29:32;2.92;;;1.67;;
26102;SDS011;69760;49.380;8.998;2023-11-21T00:31:57;5.05;;;1.90;;
26102;SDS011;69760;49.380;8.998;2023-11-21T00:34:23;3.92;;;1.55;;
26102;SDS011;69760;49.380;8.998;2023-11-21T00:36:48;4.57;;;1.40;;
26102;SDS011;69760;49.380;8.998;2023-11-21T00:39:14;3.17;;;1.40;;
26102;SDS011;69760;49.380;8.998;2023-11-21T00:41:40;6.70;;;1.70;;
26102;SDS011;69760;49.380;8.998;2023-11-21T00:44:06;3.15;;;1.30;;
26102;SDS011;69760;49.380;8.998;2023-11-21T00:46:32;4.25;;;1.58;;
26102;SDS011;69760;49.380;8.998;2023-11-21T00:48:58;3.95;;;1.48;;
26102;SDS011;69760;49.380;8.998;2023-11-21T00:51:23;4.25;;;1.30;;
26102;SDS011;69760;49.380;8.998;2023-11-21T00:53:49;3.33;;;1.60;;
26102;SDS011;69760;49.380;8.998;2023-11-21T00:56:15;3.95;;;1.60;;
26102;SDS011;69760;49.380;8.998;2023-11-21T00:58:41;5.28;;;1.90;;
26102;SDS011;69760;49.380;8.998;2023-11-21T01:01:11;3.97;;;1.52;;
26102;SDS011;69760;49.380;8.998;2023-11-21T01:03:37;8.23;;;1.92;;
26102;SDS011;69760;49.380;8.998;2023-11-21T01:06:03;6.10;;;2.00;;
26102;SDS011;69760;49.380;8.998;2023-11-21T01:08:32;5.63;;;1.80;;
26102;SDS011;69760;49.380;8.998;2023-11-21T01:10:57;5.88;;;1.67;;
26102;SDS011;69760;49.380;8.998;2023-11-21T01:13:23;6.18;;;1.75;;
26102;SDS011;69760;49.380;8.998;2023-11-21T01:15:49;6.18;;;1.73;;
26102;SDS011;69760;49.380;8.998;2023-11-21T01:18:14;7.28;;;2.05;;
26102;SDS011;69760;49.380;8.998;2023-11-21T01:20:40;4.28;;;1.90;;
26102;SDS011;69760;49.380;8.998;2023-11-21T01:23:05;4.05;;;1.83;;
26102;SDS011;69760;49.380;8.998;2023-11-21T01:25:31;6.07;;;1.58;;
26102;SDS011;69760;49.380;8.998;2023-11-21T01:27:56;7.18;;;1.42;;
26102;SDS011;69760;49.380;8.998;2023-11-21T01:30:22;5.68;;;1.92;;
26102;SDS011;69760;49.380;8.998;2023-11-21T01:32:47;4.75;;;1.92;;
26102;SDS011;69760;49.380;8.998;2023-11-21T01:35:13;5.30;;;1.90;;
26102;SDS011;69760;49.380;8.998;2023-11-21T01:37:38;5.25;;;1.77;;
26102;SDS011;69760;49.380;8.998;2023-11-21T01:40:04;5.97;;;2.03;;
26102;SDS011;69760;49.380;8.998;2023-11-21T01:42:34;8.25;;;2.08;;
26102;SDS011;69760;49.380;8.998;2023-11-21T01:45:00;6.55;;;2.63;;
26102;SDS011;69760;49.380;8.998;2023-11-21T01:47:28;10.68;;;2.90;;
26102;SDS011;69760;49.380;8.998;2023-11-21T01:49:55;10.95;;;3.10;;
26102;SDS011;69760;49.380;8.998;2023-11-21T01:52:20;7.72;;;2.42;;
26102;SDS011;69760;49.380;8.998;2023-11-21T01:54:46;10.32;;;2.83;;
26102;SDS011;69760;49.380;8.998;2023-11-21T01:57:12;9.60;;;3.60;;
26102;SDS011;69760;49.380;8.998;2023-11-21T01:59:38;8.27;;;2.30;;
26102;SDS011;69760;49.380;8.998;2023-11-21T02:02:07;7.35;;;2.40;;
26102;SDS011;69760;49.380;8.998;2023-11-21T02:04:34;7.75;;;2.17;;
26102;SDS011;69760;49.380;8.998;2023-11-21T02:07:04;7.53;;;2.17;;
26102;SDS011;69760;49.380;8.998;2023-11-21T02:09:33;8.25;;;2.15;;
26102;SDS011;69760;49.380;8.998;2023-11-21T02:11:59;7.13;;;2.10;;
26102;SDS011;69760;49.380;8.998;2023-11-21T02:14:25;6.45;;;2.42;;
26102;SDS011;69760;49.380;8.998;2023-11-21T02:16:52;6.32;;;2.33;;
26102;SDS011;69760;49.380;8.998;2023-11-21T02:19:19;6.55;;;2.50;;
26102;SDS011;69760;49.380;8.998;2023-11-21T02:21:47;5.70;;;2.00;;
26102;SDS011;69760;49.380;8.998;2023-11-21T02:24:20;6.38;;;2.75;;
26102;SDS011;69760;49.380;8.998;2023-11-21T02:26:47;7.88;;;2.55;;
26102;SDS011;69760;49.380;8.998;2023-11-21T02:29:13;6.60;;;2.08;;
26102;SDS011;69760;49.380;8.998;2023-11-21T02:31:42;6.05;;;2.13;;
26102;SDS011;69760;49.380;8.998;2023-11-21T02:34:16;8.02;;;2.40;;
26102;SDS011;69760;49.380;8.998;2023-11-21T02:36:43;6.07;;;2.10;;
26102;SDS011;69760;49.380;8.998;2023-11-21T02:39:09;6.63;;;2.03;;
26102;SDS011;69760;49.380;8.998;2023-11-21T02:41:37;6.18;;;2.30;;
26102;SDS011;69760;49.380;8.998;2023-11-21T02:44:04;6.80;;;2.30;;
26102;SDS011;69760;49.380;8.998;2023-11-21T02:46:31;5.88;;;2.15;;
26102;SDS011;69760;49.380;8.998;2023-11-21T02:48:58;5.82;;;2.08;;
26102;SDS011;69760;49.380;8.998;2023-11-21T02:51:28;8.98;;;2.08;;
26102;SDS011;69760;49.380;8.998;2023-11-21T02:53:54;6.13;;;2.17;;
26102;SDS011;69760;49.380;8.998;2023-11-21T02:56:23;5.00;;;2.10;;
26102;SDS011;69760;49.380;8.998;2023-11-21T02:58:49;8.13;;;2.22;;
26102;SDS011;69760;49.380;8.998;2023-11-21T03:01:15;7.03;;;1.92;;
26102;SDS011;69760;49.380;8.998;2023-11-21T03:03:41;7.28;;;2.30;;
26102;SDS011;69760;49.380;8.998;2023-11-21T03:06:07;4.63;;;1.80;;
26102;SDS011;69760;49.380;8.998;2023-11-21T03:08:33;7.43;;;2.05;;
26102;SDS011;69760;49.380;8.998;2023-11-21T03:10:59;7.65;;;2.60;;
26102;SDS011;69760;49.380;8.998;2023-11-21T03:13:24;5.80;;;2.20;;
26102;SDS011;69760;49.380;8.998;2023-11-21T03:15:50;5.47;;;1.92;;
26102;SDS011;69760;49.380;8.998;2023-11-21T03:18:15;9.13;;;2.17;;
26102;SDS011;69760;49.380;8.998;2023-11-21T03:20:41;6.28;;;2.50;;
26102;SDS011;69760;49.380;8.998;2023-11-21T03:23:11;4.95;;;1.90;;
26102;SDS011;69760;49.380;8.998;2023-11-21T03:25:36;3.28;;;2.08;;
26102;SDS011;69760;49.380;8.998;2023-11-21T03:28:02;7.75;;;2.15;;
26102;SDS011;69760;49.380;8.998;2023-11-21T03:30:28;5.45;;;2.13;;
26102;SDS011;69760;49.380;8.998;2023-11-21T03:32:53;5.18;;;2.08;;
26102;SDS011;69760;49.380;8.998;2023-11-21T03:35:19;5.90;;;2.13;;
26102;SDS011;69760;49.380;8.998;2023-11-21T03:37:46;8.63;;;2.25;;
26102;SDS011;69760;49.380;8.998;2023-11-21T03:40:11;4.55;;;2.03;;
26102;SDS011;69760;49.380;8.998;2023-11-21T03:42:37;6.10;;;2.08;;
26102;SDS011;69760;49.380;8.998;2023-11-21T03:45:04;4.95;;;2.22;;
26102;SDS011;69760;49.380;8.998;2023-11-21T03:47:30;5.97;;;2.17;;
26102;SDS011;69760;49.380;8.998;2023-11-21T03:49:55;3.30;;;1.88;;
26102;SDS011;69760;49.380;8.998;2023-11-21T03:52:21;7.47;;;2.20;;
26102;SDS011;69760;49.380;8.998;2023-11-21T03:54:47;2.40;;;1.50;;
26102;SDS011;69760;49.380;8.998;2023-11-21T03:57:12;4.43;;;1.77;;
26102;SDS011;69760;49.380;8.998;2023-11-21T03:59:41;3.95;;;1.48;;
26102;SDS011;69760;49.380;8.998;2023-11-21T04:02:07;3.00;;;1.90;;
26102;SDS011;69760;49.380;8.998;2023-11-21T04:04:33;3.35;;;1.92;;
26102;SDS011;69760;49.380;8.998;2023-11-21T04:06:59;4.38;;;2.13;;
26102;SDS011;69760;49.380;8.998;2023-11-21T04:09:25;4.70;;;2.28;;
26102;SDS011;69760;49.380;8.998;2023-11-21T04:11:51;5.20;;;2.50;;
26102;SDS011;69760;49.380;8.998;2023-11-21T04:14:17;5.55;;;2.63;;
26102;SDS011;69760;49.380;8.998;2023-11-21T04:16:43;4.45;;;2.38;;
26102;SDS011;69760;49.380;8.998;2023-11-21T04:19:08;3.92;;;2.20;;
26102;SDS011;69760;49.380;8.998;2023-11-21T04:21:39;3.55;;;2.08;;
26102;SDS011;69760;49.380;8.998;2023-11-21T04:24:05;3.50;;;2.10;;
26102;SDS011;69760;49.380;8.998;2023-11-21T04:26:31;4.07;;;2.00;;
26102;SDS011;69760;49.380;8.998;2023-11-21T04:28:57;4.93;;;1.90;;
26102;SDS011;69760;49.380;8.998;2023-11-21T04:31:23;3.83;;;1.83;;
26102;SDS011;69760;49.380;8.998;2023-11-21T04:33:48;4.38;;;1.63;;
26102;SDS011;69760;49.380;8.998;2023-11-21T04:36:14;2.75;;;1.65;;
26102;SDS011;69760;49.380;8.998;2023-11-21T04:38:39;2.65;;;1.70;;
26102;SDS011;69760;49.380;8.998;2023-11-21T04:41:06;2.58;;;1.52;;
26102;SDS011;69760;49.380;8.998;2023-11-21T04:43:32;4.00;;;1.40;;
26102;SDS011;69760;49.380;8.998;2023-11-21T04:45:58;3.55;;;1.50;;
26102;SDS011;69760;49.380;8.998;2023-11-21T04:48:23;2.63;;;1.33;;
26102;SDS011;69760;49.380;8.998;2023-11-21T04:50:49;3.35;;;1.55;;
26102;SDS011;69760;49.380;8.998;2023-11-21T04:53:14;2.80;;;1.45;;
26102;SDS011;69760;49.380;8.998;2023-11-21T04:55:40;3.95;;;1.80;;
26102;SDS011;69760;49.380;8.998;2023-11-21T04:58:06;4.15;;;2.55;;
26102;SDS011;69760;49.380;8.998;2023-11-21T05:00:33;3.92;;;2.08;;
26102;SDS011;69760;49.380;8.998;2023-11-21T05:02:59;3.67;;;1.90;;
26102;SDS011;69760;49.380;8.998;2023-11-21T05:05:26;4.00;;;1.95;;
26102;SDS011;69760;49.380;8.998;2023-11-21T05:07:52;4.18;;;1.88;;
26102;SDS011;69760;49.380;8.998;2023-11-21T05:10:18;3.38;;;1.85;;
26102;SDS011;69760;49.380;8.998;2023-11-21T05:12:44;3.25;;;1.52;;
26102;SDS011;69760;49.380;8.998;2023-11-21T05:15:12;5.97;;;2.05;;
26102;SDS011;69760;49.380;8.998;2023-11-21T05:17:39;3.33;;;1.95;;
26102;SDS011;69760;49.380;8.998;2023-11-21T05:20:14;4.97;;;1.95;;
26102;SDS011;69760;49.380;8.998;2023-11-21T05:22:48;3.38;;;1.70;;
26102;SDS011;69760;49.380;8.998;2023-11-21T05:25:14;3.17;;;1.80;;
26102;SDS011;69760;49.380;8.998;2023-11-21T05:27:40;4.00;;;1.85;;
26102;SDS011;69760;49.380;8.998;2023-11-21T05:30:07;5.03;;;3.03;;
26102;SDS011;69760;49.380;8.998;2023-11-21T05:32:37;6.00;;;3.28;;
26102;SDS011;69760;49.380;8.998;2023-11-21T05:35:03;4.60;;;2.20;;
26102;SDS011;69760;49.380;8.998;2023-11-21T05:37:34;2.70;;;1.70;;
26102;SDS011;69760;49.380;8.998;2023-11-21T05:40:00;5.68;;;2.40;;
26102;SDS011;69760;49.380;8.998;2023-11-21T05:42:30;4.90;;;2.92;;
26102;SDS011;69760;49.380;8.998;2023-11-21T05:44:59;4.00;;;2.40;;
26102;SDS011;69760;49.380;8.998;2023-11-21T05:47:38;4.82;;;3.22;;
26102;SDS011;69760;49.380;8.998;2023-11-21T05:50:06;8.40;;;3.33;;
26102;SDS011;69760;49.380;8.998;2023-11-21T05:52:40;4.90;;;2.70;;
26102;SDS011;69760;49.380;8.998;2023-11-21T05:55:07;8.18;;;2.30;;
26102;SDS011;69760;49.380;8.998;2023-11-21T05:57:33;4.13;;;2.45;;
26102;SDS011;69760;49.380;8.998;2023-11-21T06:00:06;5.05;;;2.30;;
26102;SDS011;69760;49.380;8.998;2023-11-21T06:02:40;3.00;;;2.15;;
26102;SDS011;69760;49.380;8.998;2023-11-21T06:05:06;3.92;;;2.40;;
26102;SDS011;69760;49.380;8.998;2023-11-21T06:07:33;3.95;;;2.47;;
26102;SDS011;69760;49.380;8.998;2023-11-21T06:10:00;4.03;;;2.40;;
26102;SDS011;69760;49.380;8.998;2023-11-21T06:12:27;4.68;;;2.42;;
26102;SDS011;69760;49.380;8.998;2023-11-21T06:14:53;3.45;;;2.50;;
26102;SDS011;69760;49.380;8.998;2023-11-21T06:17:19;3.80;;;2.47;;
26102;SDS011;69760;49.380;8.998;2023-11-21T06:19:44;5.25;;;3.05;;
26102;SDS011;69760;49.380;8.998;2023-11-21T06:22:11;4.63;;;2.95;;
26102;SDS011;69760;49.380;8.998;2023-11-21T06:24:36;4.07;;;3.00;;
26102;SDS011;69760;49.380;8.998;2023-11-21T06:27:03;4.20;;;3.00;;
26102;SDS011;69760;49.380;8.998;2023-11-21T06:29:29;3.17;;;2.33;;
26102;SDS011;69760;49.380;8.998;2023-11-21T06:31:55;2.35;;;1.77;;
26102;SDS011;69760;49.380;8.998;2023-11-21T06:34:21;3.42;;;2.30;;
26102;SDS011;69760;49.380;8.998;2023-11-21T06:36:47;3.03;;;2.70;;
26102;SDS011;69760;49.380;8.998;2023-11-21T06:39:12;3.67;;;2.45;;
26102;SDS011;69760;49.380;8.998;2023-11-21T06:41:40;4.57;;;3.10;;
26102;SDS011;69760;49.380;8.998;2023-11-21T06:44:05;4.90;;;3.50;;
26102;SDS011;69760;49.380;8.998;2023-11-21T06:46:31;5.88;;;3.13;;
26102;SDS011;69760;49.380;8.998;2023-11-21T06:48:56;3.75;;;2.97;;
26102;SDS011;69760;49.380;8.998;2023-11-21T06:51:22;3.60;;;2.97;;
26102;SDS011;69760;49.380;8.998;2023-11-21T06:53:47;3.28;;;2.90;;
26102;SDS011;69760;49.380;8.998;2023-11-21T06:56:16;4.57;;;3.20;;
26102;SDS011;69760;49.380;8.998;2023-11-21T06:58:43;4.18;;;3.55;;
26102;SDS011;69760;49.380;8.998;2023-11-21T07:01:10;3.97;;;3.15;;
26102;SDS011;69760;49.380;8.998;2023-11-21T07:03:36;4.85;;;3.35;;
26102;SDS011;69760;49.380;8.998;2023-11-21T07:06:02;4.30;;;3.53;;
26102;SDS011;69760;49.380;8.998;2023-11-21T07:08:28;4.93;;;3.90;;
26102;SDS011;69760;49.380;8.998;2023-11-21T07:10:54;4.03;;;3.10;;
26102;SDS011;69760;49.380;8.998;2023-11-21T07:13:19;5.20;;;3.30;;
26102;SDS011;69760;49.380;8.998;2023-11-21T07:15:46;6.03;;;3.80;;
26102;SDS011;69760;49.380;8.998;2023-11-21T07:18:13;7.13;;;3.78;;
26102;SDS011;69760;49.380;8.998;2023-11-21T07:20:38;5.00;;;3.53;;
26102;SDS011;69760;49.380;8.998;2023-11-21T07:23:04;8.40;;;4.18;;
26102;SDS011;69760;49.380;8.998;2023-11-21T07:25:30;4.75;;;3.80;;
26102;SDS011;69760;49.380;8.998;2023-11-21T07:27:57;5.32;;;3.65;;
26102;SDS011;69760;49.380;8.998;2023-11-21T07:30:22;4.95;;;4.28;;
26102;SDS011;69760;49.380;8.998;2023-11-21T07:32:48;6.05;;;4.30;;
26102;SDS011;69760;49.380;8.998;2023-11-21T07:35:14;5.55;;;3.97;;
26102;SDS011;69760;49.380;8.998;2023-11-21T07:37:39;5.13;;;4.57;;
26102;SDS011;69760;49.380;8.998;2023-11-21T07:40:05;5.53;;;4.05;;
26102;SDS011;69760;49.380;8.998;2023-11-21T07:42:33;5.32;;;4.18;;
26102;SDS011;69760;49.380;8.998;2023-11-21T07:44:59;5.78;;;4.47;;
26102;SDS011;69760;49.380;8.998;2023-11-21T07:47:25;4.32;;;3.75;;
26102;SDS011;69760;49.380;8.998;2023-11-21T07:49:52;5.18;;;4.53;;
26102;SDS011;69760;49.380;8.998;2023-11-21T07:52:18;5.78;;;4.18;;
26102;SDS011;69760;49.380;8.998;2023-11-21T07:54:46;6.90;;;4.10;;
26102;SDS011;69760;49.380;8.998;2023-11-21T07:57:11;5.95;;;3.85;;
26102;SDS011;69760;49.380;8.998;2023-11-21T07:59:38;5.30;;;3.80;;
26102;SDS011;69760;49.380;8.998;2023-11-21T08:02:06;5.07;;;3.72;;
26102;SDS011;69760;49.380;8.998;2023-11-21T08:04:32;5.10;;;3.80;;
26102;SDS011;69760;49.380;8.998;2023-11-21T08:06:57;7.63;;;4.20;;
26102;SDS011;69760;49.380;8.998;2023-11-21T08:09:23;6.15;;;3.90;;
26102;SDS011;69760;49.380;8.998;2023-11-21T08:11:49;4.72;;;3.95;;
26102;SDS011;69760;49.380;8.998;2023-11-21T08:14:14;5.57;;;3.80;;
26102;SDS011;69760;49.380;8.998;2023-11-21T08:16:42;5.60;;;4.05;;
26102;SDS011;69760;49.380;8.998;2023-11-21T08:19:07;5.85;;;3.83;;
26102;SDS011;69760;49.380;8.998;2023-11-21T08:21:34;4.88;;;3.75;;
26102;SDS011;69760;49.380;8.998;2023-11-21T08:24:02;7.95;;;4.00;;
26102;SDS011;69760;49.380;8.998;2023-11-21T08:26:29;5.00;;;3.28;;
26102;SDS011;69760;49.380;8.998;2023-11-21T08:28:55;3.63;;;3.10;;
26102;SDS011;69760;49.380;8.998;2023-11-21T08:31:25;4.53;;;3.40;;
26102;SDS011;69760;49.380;8.998;2023-11-21T08:33:51;5.28;;;3.53;;
26102;SDS011;69760;49.380;8.998;2023-11-21T08:36:16;3.47;;;3.17;;
26102;SDS011;69760;49.380;8.998;2023-11-21T08:38:42;5.93;;;3.83;;
26102;SDS011;69760;49.380;8.998;2023-11-21T08:41:07;4.40;;;3.45;;
26102;SDS011;69760;49.380;8.998;2023-11-21T08:43:34;3.47;;;3.00;;
26102;SDS011;69760;49.380;8.998;2023-11-21T08:46:00;4.53;;;2.92;;
26102;SDS011;69760;49.380;8.998;2023-11-21T08:48:26;3.70;;;3.30;;
26102;SDS011;69760;49.380;8.998;2023-11-21T08:50:53;4.63;;;3.67;;
26102;SDS011;69760;49.380;8.998;2023-11-21T08:53:19;3.95;;;3.25;;
26102;SDS011;69760;49.380;8.998;2023-11-21T08:55:45;4.45;;;3.65;;
26102;SDS011;69760;49.380;8.998;2023-11-21T08:58:10;4.60;;;2.90;;
26102;SDS011;69760;49.380;8.998;2023-11-21T09:00:37;3.70;;;3.13;;
26102;SDS011;69760;49.380;8.998;2023-11-21T09:03:04;5.22;;;3.35;;
26102;SDS011;69760;49.380;8.998;2023-11-21T09:05:33;4.05;;;3.17;;
26102;SDS011;69760;49.380;8.998;2023-11-21T09:08:02;4.30;;;3.53;;
26102;SDS011;69760;49.380;8.998;2023-11-21T09:10:28;3.58;;;2.80;;
26102;SDS011;69760;49.380;8.998;2023-11-21T09:12:53;2.65;;;1.77;;
26102;SDS011;69760;49.380;8.998;2023-11-21T09:15:19;2.90;;;1.10;;
26102;SDS011;69760;49.380;8.998;2023-11-21T09:17:45;0.73;;;0.45;;
26102;SDS011;69760;49.380;8.998;2023-11-21T09:20:11;0.88;;;0.30;;
26102;SDS011;69760;49.380;8.998;2023-11-21T09:22:37;0.32;;;0.30;;
26102;SDS011;69760;49.380;8.998;2023-11-21T09:25:02;0.40;;;0.40;;
26102;SDS011;69760;49.380;8.998;2023-11-21T09:27:32;0.65;;;0.40;;
26102;SDS011;69760;49.380;8.998;2023-11-21T09:29:57;0.80;;;0.30;;
26102;SDS011;69760;49.380;8.998;2023-11-21T09:32:23;0.45;;;0.30;;
26102;SDS011;69760;49.380;8.998;2023-11-21T09:34:49;0.52;;;0.30;;
26102;SDS011;69760;49.380;8.998;2023-11-21T09:37:15;0.40;;;0.40;;
26102;SDS011;69760;49.380;8.998;2023-11-21T09:39:41;0.30;;;0.30;;
26102;SDS011;69760;49.380;8.998;2023-11-21T09:47:20;0.32;;;0.20;;
26102;SDS011;69760;49.380;8.998;2023-11-21T09:49:47;0.73;;;0.30;;
26102;SDS011;69760;49.380;8.998;2023-11-21T09:52:27;0.35;;;0.30;;
26102;SDS011;69760;49.380;8.998;2023-11-21T09:54:54;2.45;;;0.28;;
26102;SDS011;69760;49.380;8.998;2023-11-21T09:57:23;0.47;;;0.30;;
26102;SDS011;69760;49.380;8.998;2023-11-21T09:59:50;0.40;;;0.40;;
26102;SDS011;69760;49.380;8.998;2023-11-21T10:02:24;0.30;;;0.30;;
26102;SDS011;69760;49.380;8.998;2023-11-21T10:04:54;0.57;;;0.30;;
26102;SDS011;69760;49.380;8.998;2023-11-21T10:07:21;0.52;;;0.40;;
26102;SDS011;69760;49.380;8.998;2023-11-21T10:09:47;0.30;;;0.30;;
26102;SDS011;69760;49.380;8.998;2023-11-21T10:12:15;0.63;;;0.50;;
26102;SDS011;69760;49.380;8.998;2023-11-21T10:14:41;0.95;;;0.45;;
26102;SDS011;69760;49.380;8.998;2023-11-21T10:17:09;1.00;;;0.50;;
26102;SDS011;69760;49.380;8.998;2023-11-21T10:19:37;0.40;;;0.30;;
26102;SDS011;69760;49.380;8.998;2023-11-21T10:22:04;0.40;;;0.40;;
26102;SDS011;69760;49.380;8.998;2023-11-21T10:24:31;0.75;;;0.73;;
26102;SDS011;69760;49.380;8.998;2023-11-21T10:26:58;2.30;;;1.38;;
26102;SDS011;69760;49.380;8.998;2023-11-21T10:29:23;2.80;;;1.60;;
26102;SDS011;69760;49.380;8.998;2023-11-21T10:31:49;1.15;;;0.85;;
26102;SDS011;69760;49.380;8.998;2023-11-21T10:36:43;2.03;;;1.20;;
26102;SDS011;69760;49.380;8.998;2023-11-21T10:39:13;1.52;;;0.88;;
26102;SDS011;69760;49.380;8.998;2023-11-21T10:41:43;3.30;;;1.30;;
26102;SDS011;69760;49.380;8.998;2023-11-21T10:44:16;1.65;;;1.00;;
26102;SDS011;69760;49.380;8.998;2023-11-21T10:46:53;0.45;;;0.43;;
26102;SDS011;69760;49.380;8.998;2023-11-21T10:49:24;0.68;;;0.68;;
26102;SDS011;69760;49.380;8.998;2023-11-21T10:51:51;1.20;;;0.63;;
26102;SDS011;69760;49.380;8.998;2023-11-21T10:54:21;0.65;;;0.43;;
26102;SDS011;69760;49.380;8.998;2023-11-21T10:56:48;0.60;;;0.40;;
26102;SDS011;69760;49.380;8.998;2023-11-21T10:59:17;0.40;;;0.40;;
26102;SDS011;69760;49.380;8.998;2023-11-21T11:01:44;1.27;;;0.50;;
26102;SDS011;69760;49.380;8.998;2023-11-21T11:04:13;0.50;;;0.50;;
26102;SDS011;69760;49.380;8.998;2023-11-21T11:06:44;0.80;;;0.60;;
26102;SDS011;69760;49.380;8.998;2023-11-21T11:09:16;0.60;;;0.50;;
26102;SDS011;69760;49.380;8.998;2023-11-21T11:11:43;1.08;;;0.90;;
26102;SDS011;69760;49.380;8.998;2023-11-21T11:14:12;2.03;;;1.48;;
26102;SDS011;69760;49.380;8.998;2023-11-21T11:16:39;0.80;;;0.80;;
26102;SDS011;69760;49.380;8.998;2023-11-21T11:19:08;1.10;;;0.90;;
26102;SDS011;69760;49.380;8.998;2023-11-21T11:27:04;1.23;;;0.63;;
26102;SDS011;69760;49.380;8.998;2023-11-21T11:29:57;1.63;;;0.68;;
26102;SDS011;69760;49.380;8.998;2023-11-21T11:38:15;2.60;;;0.90;;
26102;SDS011;69760;49.380;8.998;2023-11-21T11:40:45;0.77;;;0.75;;
26102;SDS011;69760;49.380;8.998;2023-11-21T11:43:12;1.00;;;0.90;;
26102;SDS011;69760;49.380;8.998;2023-11-21T11:45:37;0.70;;;0.70;;
26102;SDS011;69760;49.380;8.998;2023-11-21T11:48:07;2.53;;;1.10;;
26102;SDS011;69760;49.380;8.998;2023-11-21T11:50:33;1.63;;;1.10;;
26102;SDS011;69760;49.380;8.998;2023-11-21T11:53:14;2.83;;;1.20;;
26102;SDS011;69760;49.380;8.998;2023-11-21T11:55:40;2.05;;;1.00;;
26102;SDS011;69760;49.380;8.998;2023-11-21T11:58:06;1.38;;;0.90;;
26102;SDS011;69760;49.380;8.998;2023-11-21T12:00:33;1.15;;;1.02;;
26102;SDS011;69760;49.380;8.998;2023-11-21T12:03:02;1.25;;;0.90;;
26102;SDS011;69760;49.380;8.998;2023-11-21T12:05:29;1.35;;;1.02;;
26102;SDS011;69760;49.380;8.998;2023-11-21T12:08:01;4.05;;;0.90;;
26102;SDS011;69760;49.380;8.998;2023-11-21T12:10:29;1.20;;;0.80;;
26102;SDS011;69760;49.380;8.998;2023-11-21T12:13:10;0.98;;;0.90;;
26102;SDS011;69760;49.380;8.998;2023-11-21T12:15:38;0.85;;;0.85;;
26102;SDS011;69760;49.380;8.998;2023-11-21T12:18:06;1.38;;;0.90;;
26102;SDS011;69760;49.380;8.998;2023-11-21T12:20:32;1.73;;;1.00;;
26102;SDS011;69760;49.380;8.998;2023-11-21T12:23:03;1.88;;;1.02;;
26102;SDS011;69760;49.380;8.998;2023-11-21T12:25:30;1.27;;;0.80;;
26102;SDS011;69760;49.380;8.998;2023-11-21T12:28:01;1.17;;;1.00;;
26102;SDS011;69760;49.380;8.998;2023-11-21T12:30:28;0.95;;;0.80;;
26102;SDS011;69760;49.380;8.998;2023-11-21T12:33:00;1.80;;;0.80;;
26102;SDS011;69760;49.380;8.998;2023-11-21T12:35:28;3.22;;;0.95;;
26102;SDS011;69760;49.380;8.998;2023-11-21T12:37:56;1.08;;;0.80;;
26102;SDS011;69760;49.380;8.998;2023-11-21T12:40:22;1.08;;;0.90;;
26102;SDS011;69760;49.380;8.998;2023-11-21T12:42:49;0.98;;;0.80;;
26102;SDS011;69760;49.380;8.998;2023-11-21T12:45:23;1.40;;;1.13;;
26102;SDS011;69760;49.380;8.998;2023-11-21T12:47:57;2.60;;;1.10;;
26102;SDS011;69760;49.380;8.998;2023-11-21T12:50:32;9.70;;;4.38;;
26102;SDS011;69760;49.380;8.998;2023-11-21T12:53:00;6.13;;;2.40;;
26102;SDS011;69760;49.380;8.998;2023-11-21T12:55:33;1.00;;;0.90;;
26102;SDS011;69760;49.380;8.998;2023-11-21T12:58:03;1.25;;;0.80;;
26102;SDS011;69760;49.380;8.998;2023-11-21T13:00:40;0.90;;;0.80;;
26102;SDS011;69760;49.380;8.998;2023-11-21T13:03:14;1.20;;;0.88;;
26102;SDS011;69760;49.380;8.998;2023-11-21T13:05:43;0.90;;;0.63;;
26102;SDS011;69760;49.380;8.998;2023-11-21T13:08:10;2.17;;;0.70;;
26102;SDS011;69760;49.380;8.998;2023-11-21T13:10:44;0.90;;;0.68;;
26102;SDS011;69760;49.380;8.998;2023-11-21T13:13:12;2.17;;;0.75;;
26102;SDS011;69760;49.380;8.998;2023-11-21T13:15:48;1.35;;;0.95;;
26102;SDS011;69760;49.380;8.998;2023-11-21T13:18:15;1.35;;;0.70;;
26102;SDS011;69760;49.380;8.998;2023-11-21T13:20:42;0.82;;;0.65;;
26102;SDS011;69760;49.380;8.998;2023-11-21T13:23:09;1.05;;;0.65;;
26102;SDS011;69760;49.380;8.998;2023-11-21T13:25:38;1.25;;;0.82;;
26102;SDS011;69760;49.380;8.998;2023-11-21T13:28:06;1.27;;;0.80;;
26102;SDS011;69760;49.380;8.998;2023-11-21T13:30:32;0.93;;;0.70;;
26102;SDS011;69760;49.380;8.998;2023-11-21T13:33:01;1.63;;;0.73;;
26102;SDS011;69760;49.380;8.998;2023-11-21T13:35:31;2.25;;;0.80;;
26102;SDS011;69760;49.380;8.998;2023-11-21T13:38:03;1.63;;;0.70;;
26102;SDS011;69760;49.380;8.998;2023-11-21T13:40:31;1.10;;;0.65;;
26102;SDS011;69760;49.380;8.998;2023-11-21T13:42:59;2.35;;;0.70;;
26102;SDS011;69760;49.380;8.998;2023-11-21T13:45:27;0.80;;;0.60;;
26102;SDS011;69760;49.380;8.998;2023-11-21T13:47:54;5.10;;;1.90;;
26102;SDS011;69760;49.380;8.998;2023-11-21T13:50:26;1.30;;;0.80;;
26102;SDS011;69760;49.380;8.998;2023-11-21T13:52:59;1.67;;;0.80;;
26102;SDS011;69760;49.380;8.998;2023-11-21T13:55:29;2.97;;;0.90;;
26102;SDS011;69760;49.380;8.998;2023-11-21T13:57:55;1.40;;;0.80;;
26102;SDS011;69760;49.380;8.998;2023-11-21T14:00:20;1.83;;;0.80;;
26102;SDS011;69760;49.380;8.998;2023-11-21T14:03:04;0.90;;;0.80;;
26102;SDS011;69760;49.380;8.998;2023-11-21T14:05:35;2.58;;;0.90;;
26102;SDS011;69760;49.380;8.998;2023-11-21T14:08:01;1.55;;;0.90;;
26102;SDS011;69760;49.380;8.998;2023-11-21T14:10:30;2.15;;;1.10;;
26102;SDS011;69760;49.380;8.998;2023-11-21T14:13:07;2.05;;;1.13;;
26102;SDS011;69760;49.380;8.998;2023-11-21T14:15:35;3.30;;;0.93;;
26102;SDS011;69760;49.380;8.998;2023-11-21T14:18:06;0.70;;;0.60;;
26102;SDS011;69760;49.380;8.998;2023-11-21T14:20:35;1.75;;;0.90;;
26102;SDS011;69760;49.380;8.998;2023-11-21T14:23:02;1.40;;;0.73;;
26102;SDS011;69760;49.380;8.998;2023-11-21T14:25:29;1.85;;;0.80;;
26102;SDS011;69760;49.380;8.998;2023-11-21T14:27:55;2.30;;;0.80;;
26102;SDS011;69760;49.380;8.998;2023-11-21T14:30:21;2.60;;;1.10;;
26102;SDS011;69760;49.380;8.998;2023-11-21T14:32:47;1.67;;;0.70;;
26102;SDS011;69760;49.380;8.998;2023-11-21T14:35:14;3.40;;;0.98;;
26102;SDS011;69760;49.380;8.998;2023-11-21T14:37:41;1.27;;;0.90;;
26102;SDS011;69760;49.380;8.998;2023-11-21T14:40:06;2.97;;;0.85;;
26102;SDS011;69760;49.380;8.998;2023-11-21T14:42:33;2.30;;;1.23;;
26102;SDS011;69760;49.380;8.998;2023-11-21T14:45:02;3.55;;;0.93;;
26102;SDS011;69760;49.380;8.998;2023-11-21T14:47:32;2.22;;;1.30;;
26102;SDS011;69760;49.380;8.998;2023-11-21T14:49:59;2.40;;;1.38;;
26102;SDS011;69760;49.380;8.998;2023-11-21T14:52:48;2.05;;;1.40;;
26102;SDS011;69760;49.380;8.998;2023-11-21T14:55:24;2.63;;;1.63;;
26102;SDS011;69760;49.380;8.998;2023-11-21T14:57:49;5.07;;;2.40;;
26102;SDS011;69760;49.380;8.998;2023-11-21T15:00:16;4.28;;;2.10;;
26102;SDS011;69760;49.380;8.998;2023-11-21T15:03:08;3.20;;;1.38;;
26102;SDS011;69760;49.380;8.998;2023-11-21T15:05:34;1.50;;;1.08;;
26102;SDS011;69760;49.380;8.998;2023-11-21T15:08:00;2.25;;;1.30;;